Time;durP1;ratioP1;P1;durP2;ratioP2;P2;SDS_P1;SDS_P2;PMS_P1;PMS_P2;Temp;Humidity;BMP_temperature;BMP_pressure;BME280_temperature;BME280_humidity;BME280_pressure;Samples;Min_cycle;Max_cycle;Signal;HPM_P1;HPM_P2
2022/08/16 00:00:28;;;;;;;15.50;13.90;;;20.80;99.90;;;;;;5038095;28;20132;-67
2022/08/16 00:02:54;;;;;;;16.48;14.88;;;20.80;99.90;;;;;;5056078;28;20440;-68
2022/08/16 00:05:23;;;;;;;16.52;14.68;;;20.80;99.90;;;;;;5043322;28;20048;-67
2022/08/16 00:07:50;;;;;;;15.48;14.00;;;20.80;99.90;;;;;;5054409;28;20091;-67
2022/08/16 00:10:17;;;;;;;15.43;13.93;;;20.90;99.90;;;;;;5054362;28;20051;-67
2022/08/16 00:12:43;;;;;;;16.75;15.27;;;20.80;99.90;;;;;;5038088;28;20037;-67
2022/08/16 00:15:22;;;;;;;17.20;15.60;;;20.80;99.90;;;;;;5063298;28;20044;-67
2022/08/16 00:17:48;;;;;;;16.55;15.23;;;20.90;99.90;;;;;;5053961;28;20066;-67
2022/08/16 00:20:14;;;;;;;15.73;14.25;;;20.90;99.90;;;;;;5054502;28;20115;-67
2022/08/16 00:22:41;;;;;;;17.30;15.80;;;20.80;99.90;;;;;;5065013;28;20094;-67
2022/08/16 00:25:13;;;;;;;16.73;15.00;;;20.80;99.90;;;;;;5066208;28;20048;-67
2022/08/16 00:27:39;;;;;;;;;;;20.70;99.90;;;;;;5054229;28;20389;-67
2022/08/16 00:30:06;;;;;;;14.40;13.10;;;20.80;99.90;;;;;;5068157;28;19916;-67
2022/08/16 00:32:32;;;;;;;17.52;15.98;;;20.70;99.90;;;;;;5053186;28;20438;-67
2022/08/16 00:34:58;;;;;;;17.70;15.65;;;20.70;99.90;;;;;;5052357;28;20036;-67
2022/08/16 00:37:25;;;;;;;16.75;15.15;;;20.70;99.90;;;;;;5074671;28;20048;-67
2022/08/16 00:39:52;;;;;;;15.45;13.85;;;20.70;99.90;;;;;;5058952;28;20040;-67
2022/08/16 00:42:18;;;;;;;16.85;15.23;;;20.70;99.90;;;;;;5055380;28;20492;-67
2022/08/16 00:44:52;;;;;;;16.75;15.15;;;20.70;99.90;;;;;;5057098;28;20127;-67
2022/08/16 00:47:19;;;;;;;18.08;16.48;;;20.60;99.90;;;;;;5054346;28;20044;-67
2022/08/16 00:49:44;;;;;;;17.30;15.70;;;20.70;99.90;;;;;;5036257;28;20099;-66
2022/08/16 00:52:10;;;;;;;17.60;15.80;;;20.60;99.90;;;;;;5055548;28;20045;-67
2022/08/16 00:54:36;;;;;;;17.17;15.48;;;20.60;99.90;;;;;;5059287;28;20129;-67
2022/08/16 00:57:03;;;;;;;15.95;14.35;;;20.60;99.90;;;;;;5037334;28;20435;-67
2022/08/16 00:59:32;;;;;;;14.95;13.55;;;20.60;99.90;;;;;;5054282;28;20084;-67
2022/08/16 01:01:59;;;;;;;17.73;16.05;;;20.60;99.90;;;;;;5043959;28;20450;-67
2022/08/16 01:04:26;;;;;;;16.77;14.85;;;20.60;99.90;;;;;;5045306;28;20055;-67
2022/08/16 01:06:53;;;;;;;17.17;15.48;;;20.60;99.90;;;;;;5065576;28;20057;-67
2022/08/16 01:09:19;;;;;;;15.27;13.85;;;20.60;99.90;;;;;;5067807;28;20081;-67
2022/08/16 01:11:45;;;;;;;17.50;15.70;;;20.50;99.90;;;;;;5057867;28;20064;-67
2022/08/16 01:14:17;;;;;;;14.02;12.63;;;20.50;99.90;;;;;;5053913;28;20079;-67
2022/08/16 01:16:45;;;;;;;16.67;15.02;;;20.50;99.90;;;;;;5055346;28;20110;-67
2022/08/16 01:19:25;;;;;;;19.77;17.88;;;20.50;99.90;;;;;;5054048;28;20044;-67
2022/08/16 01:22:15;;;;;;;17.88;16.17;;;20.50;99.90;;;;;;5066874;28;20052;-67
2022/08/16 01:24:45;;;;;;;21.00;19.05;;;20.60;99.90;;;;;;5055761;28;20048;-67
2022/08/16 01:27:28;;;;;;;19.75;17.90;;;20.50;99.90;;;;;;5052724;28;20429;-67
2022/08/16 01:30:16;;;;;;;18.33;16.70;;;20.50;99.90;;;;;;5041877;28;20048;-67
2022/08/16 01:32:42;;;;;;;16.55;15.13;;;20.50;99.90;;;;;;5066057;28;20064;-67
2022/08/16 01:35:16;;;;;;;17.52;16.02;;;20.50;99.90;;;;;;5051138;28;20055;-67
2022/08/16 01:37:44;;;;;;;19.05;16.92;;;20.50;99.90;;;;;;5048880;28;20051;-67
2022/08/16 01:40:13;;;;;;;19.00;17.02;;;20.50;99.90;;;;;;5049612;28;20040;-67
2022/08/16 01:42:39;;;;;;;18.55;16.45;;;20.50;99.90;;;;;;5059426;28;20429;-67
2022/08/16 01:45:05;;;;;;;20.15;18.20;;;20.40;99.90;;;;;;5051117;28;20045;-67
2022/08/16 01:47:32;;;;;;;18.83;16.95;;;20.50;99.90;;;;;;5047842;28;20045;-67
2022/08/16 01:49:57;;;;;;;19.33;17.35;;;20.40;99.90;;;;;;5035296;28;20045;-67
2022/08/16 01:52:23;;;;;;;20.27;16.98;;;20.40;99.90;;;;;;5052378;28;20106;-67
2022/08/16 01:54:49;;;;;;;18.80;17.00;;;20.40;99.90;;;;;;5052715;28;20045;-66
2022/08/16 01:57:14;;;;;;;20.33;18.33;;;20.30;99.90;;;;;;5051194;28;20037;-67
2022/08/16 01:59:40;;;;;;;17.00;15.45;;;20.30;99.90;;;;;;5054690;28;20079;-67
2022/08/16 02:02:06;;;;;;;21.45;19.23;;;20.30;99.90;;;;;;5052842;28;20478;-67
2022/08/16 02:04:33;;;;;;;19.42;17.63;;;20.20;99.90;;;;;;5057742;28;20052;-67
2022/08/16 02:06:58;;;;;;;17.27;15.68;;;20.20;99.90;;;;;;5053526;28;20033;-67
2022/08/16 02:09:25;;;;;;;19.15;17.35;;;20.20;99.90;;;;;;5048423;28;20465;-67
2022/08/16 02:11:56;;;;;;;18.83;16.92;;;20.10;99.90;;;;;;5025010;28;20080;-67
2022/08/16 02:14:27;;;;;;;19.88;17.85;;;20.10;99.90;;;;;;5052403;28;20052;-66
2022/08/16 02:16:54;;;;;;;19.20;17.38;;;20.10;99.90;;;;;;5051194;28;20555;-67
2022/08/16 02:19:19;;;;;;;19.45;17.65;;;20.00;99.90;;;;;;5063908;28;20048;-67
2022/08/16 02:21:49;;;;;;;17.65;16.08;;;20.00;99.90;;;;;;5061740;28;20051;-67
2022/08/16 02:24:15;;;;;;;19.65;17.75;;;19.90;99.90;;;;;;5043291;28;20078;-67
2022/08/16 02:26:40;;;;;;;18.95;17.30;;;19.80;99.90;;;;;;5052454;28;20116;-67
2022/08/16 02:29:06;;;;;;;17.48;15.80;;;19.80;99.90;;;;;;5052116;28;20037;-67
2022/08/16 02:31:32;;;;;;;19.80;17.70;;;19.80;99.90;;;;;;5062313;28;20044;-66
2022/08/16 02:33:57;;;;;;;19.60;17.85;;;19.70;99.90;;;;;;5072150;28;20094;-66
2022/08/16 02:36:23;;;;;;;18.38;16.73;;;19.70;99.90;;;;;;5061698;28;20039;-66
2022/08/16 02:38:48;;;;;;;20.27;18.38;;;19.70;99.90;;;;;;5039738;28;20032;-67
2022/08/16 02:41:14;;;;;;;20.08;17.88;;;19.60;99.90;;;;;;5034625;28;20127;-67
2022/08/16 02:43:40;;;;;;;20.15;18.15;;;19.60;99.90;;;;;;5053446;28;20056;-67
2022/08/16 02:46:06;;;;;;;17.98;16.33;;;19.60;99.90;;;;;;5032855;28;20045;-67
2022/08/16 02:48:32;;;;;;;20.27;18.20;;;19.60;99.90;;;;;;5034842;28;20048;-66
2022/08/16 02:51:00;;;;;;;18.67;17.05;;;19.60;99.90;;;;;;5036117;28;20037;-66
2022/08/16 02:53:26;;;;;;;19.33;17.48;;;19.60;99.90;;;;;;5064320;28;20119;-66
2022/08/16 02:55:52;;;;;;;19.35;17.55;;;19.50;99.90;;;;;;5062101;28;20140;-67
2022/08/16 02:58:20;;;;;;;20.33;18.38;;;19.50;99.90;;;;;;5053694;28;20037;-67
2022/08/16 03:00:46;;;;;;;18.58;16.88;;;19.50;99.90;;;;;;5062716;28;20086;-67
2022/08/16 03:03:12;;;;;;;18.85;17.17;;;19.30;99.90;;;;;;5051829;28;20053;-66
2022/08/16 03:05:37;;;;;;;19.30;17.60;;;19.30;99.90;;;;;;5051058;28;20063;-66
2022/08/16 03:08:03;;;;;;;20.80;17.83;;;19.30;99.90;;;;;;5040057;28;20055;-67
2022/08/16 03:10:28;;;;;;;20.77;18.77;;;19.40;99.90;;;;;;5055727;28;20048;-67
2022/08/16 03:12:55;;;;;;;20.13;17.92;;;19.20;99.90;;;;;;5051987;28;20488;-67
2022/08/16 03:15:21;;;;;;;19.30;17.38;;;19.20;99.90;;;;;;5048500;28;20057;-66
2022/08/16 03:17:46;;;;;;;19.83;18.02;;;19.10;99.90;;;;;;5046043;28;20061;-66
2022/08/16 03:20:14;;;;;;;18.38;16.58;;;19.10;99.90;;;;;;5068750;28;20075;-66
2022/08/16 03:22:41;;;;;;;17.85;16.30;;;19.10;99.90;;;;;;5036245;28;20119;-66
2022/08/16 03:25:09;;;;;;;20.05;18.25;;;19.00;99.90;;;;;;5063736;28;20055;-67
2022/08/16 03:27:37;;;;;;;18.75;16.98;;;19.00;99.90;;;;;;5039754;28;20049;-66
2022/08/16 03:30:19;;;;;;;20.50;18.60;;;19.00;99.90;;;;;;5070000;28;20041;-66
2022/08/16 03:32:46;;;;;;;18.23;16.42;;;18.90;99.90;;;;;;5065664;28;20044;-66
2022/08/16 03:35:14;;;;;;;21.00;19.10;;;18.90;99.90;;;;;;5050144;28;20060;-66
2022/08/16 03:37:42;;;;;;;20.13;18.13;;;18.80;99.90;;;;;;5050002;28;20053;-66
2022/08/16 03:40:09;;;;;;;21.13;19.10;;;18.70;99.90;;;;;;5048097;28;20381;-66
2022/08/16 03:42:35;;;;;;;19.02;17.02;;;18.70;99.90;;;;;;5055450;28;20551;-66
2022/08/16 03:45:00;;;;;;;21.17;19.17;;;18.70;99.90;;;;;;5063786;28;20037;-66
2022/08/16 03:47:28;;;;;;;20.45;18.15;;;18.60;99.90;;;;;;5054557;28;20424;-66
2022/08/16 03:49:55;;;;;;;20.45;18.40;;;18.60;99.90;;;;;;5064431;28;20047;-66
2022/08/16 03:52:21;;;;;;;21.75;19.85;;;18.60;99.90;;;;;;5050263;28;20060;-66
2022/08/16 03:54:48;;;;;;;24.30;21.63;;;18.50;99.90;;;;;;5055308;28;20040;-66
2022/08/16 03:57:14;;;;;;;25.58;18.92;;;18.50;99.90;;;;;;5065625;28;20052;-66
2022/08/16 03:59:40;;;;;;;21.40;19.40;;;18.50;99.90;;;;;;5052171;28;20057;-66
2022/08/16 04:02:05;;;;;;;23.17;21.08;;;18.40;99.90;;;;;;5054449;28;20130;-66
2022/08/16 04:04:32;;;;;;;22.65;20.50;;;18.40;99.90;;;;;;5052569;28;20106;-66
2022/08/16 04:06:57;;;;;;;20.90;18.80;;;18.40;99.90;;;;;;5058025;28;20068;-66
2022/08/16 04:09:23;;;;;;;24.25;21.75;;;18.30;99.90;;;;;;5072931;28;20066;-66
2022/08/16 04:11:49;;;;;;;23.15;20.98;;;18.30;99.90;;;;;;5033621;28;20045;-66
2022/08/16 04:14:14;;;;;;;21.48;19.48;;;18.30;99.90;;;;;;5064564;28;20043;-66
2022/08/16 04:16:40;;;;;;;23.30;20.92;;;18.30;99.90;;;;;;5069874;28;20049;-66
2022/08/16 04:19:05;;;;;;;22.80;19.90;;;18.30;99.90;;;;;;5072751;28;20373;-66
2022/08/16 04:21:33;;;;;;;22.08;19.85;;;18.30;99.90;;;;;;5066457;28;20559;-67
2022/08/16 04:23:59;;;;;;;21.60;19.40;;;18.30;99.90;;;;;;5033526;28;20049;-66
2022/08/16 04:26:25;;;;;;;22.48;20.17;;;18.20;99.90;;;;;;5049457;28;20072;-66
2022/08/16 04:28:50;;;;;;;21.88;19.55;;;18.10;99.90;;;;;;5063958;28;20076;-66
2022/08/16 04:31:16;;;;;;;21.42;19.15;;;18.10;99.90;;;;;;5071437;28;20472;-66
2022/08/16 04:33:42;;;;;;;18.92;17.13;;;18.20;99.90;;;;;;5074673;28;20060;-66
2022/08/16 04:36:10;;;;;;;19.65;17.77;;;18.10;99.90;;;;;;5050061;28;20534;-66
2022/08/16 04:38:36;;;;;;;21.25;19.15;;;18.10;99.90;;;;;;5070894;28;20045;-67
2022/08/16 04:41:02;;;;;;;23.70;21.27;;;18.10;99.90;;;;;;5051486;28;20044;-66
2022/08/16 04:43:28;;;;;;;23.30;19.65;;;18.10;99.90;;;;;;5053366;28;20048;-66
2022/08/16 04:45:54;;;;;;;22.55;19.45;;;18.10;99.90;;;;;;5044419;28;20372;-66
2022/08/16 04:48:19;;;;;;;21.95;19.92;;;18.10;99.90;;;;;;5073179;28;20064;-66
2022/08/16 04:50:45;;;;;;;22.23;19.88;;;18.10;99.90;;;;;;5055088;28;20109;-66
2022/08/16 04:53:10;;;;;;;22.60;20.35;;;18.20;99.90;;;;;;5075379;28;20076;-66
2022/08/16 04:55:36;;;;;;;23.73;21.38;;;18.20;99.90;;;;;;5032719;28;20124;-66
2022/08/16 04:58:03;;;;;;;24.40;22.10;;;18.20;99.90;;;;;;5057791;28;20045;-66
2022/08/16 05:00:34;;;;;;;24.30;21.70;;;18.20;99.90;;;;;;5060936;28;20084;-66
2022/08/16 05:03:06;;;;;;;22.77;20.35;;;18.20;99.90;;;;;;5070752;28;20044;-66
2022/08/16 05:05:32;;;;;;;25.65;23.15;;;18.30;99.90;;;;;;5062624;28;20057;-66
2022/08/16 05:07:58;;;;;;;24.73;22.23;;;18.30;99.90;;;;;;5049824;28;20040;-66
2022/08/16 05:10:23;;;;;;;23.80;21.30;;;18.40;99.90;;;;;;5066807;28;20043;-66
2022/08/16 05:12:49;;;;;;;23.75;21.38;;;18.40;99.90;;;;;;5052780;28;20040;-66
2022/08/16 05:15:14;;;;;;;26.08;23.58;;;18.40;99.90;;;;;;5059822;28;20037;-66
2022/08/16 05:17:40;;;;;;;25.00;22.60;;;18.50;99.90;;;;;;5044362;28;20899;-66
2022/08/16 05:20:08;;;;;;;24.05;21.73;;;18.50;99.90;;;;;;5049122;28;20037;-66
2022/08/16 05:22:35;;;;;;;25.98;23.38;;;18.60;99.90;;;;;;5039193;28;20124;-66
2022/08/16 05:25:02;;;;;;;22.67;20.38;;;18.60;99.90;;;;;;5044846;28;20048;-67
2022/08/16 05:27:28;;;;;;;24.75;22.35;;;18.70;99.90;;;;;;5050021;28;20071;-67
2022/08/16 05:29:54;;;;;;;24.42;22.02;;;18.70;99.90;;;;;;5054287;28;20033;-67
2022/08/16 05:32:19;;;;;;;24.92;21.90;;;18.70;99.90;;;;;;5052820;28;20053;-67
2022/08/16 05:34:45;;;;;;;24.95;22.38;;;18.80;99.90;;;;;;5038508;28;20041;-67
2022/08/16 05:37:10;;;;;;;25.98;23.48;;;18.90;99.90;;;;;;5060837;28;20394;-67
2022/08/16 05:39:36;;;;;;;22.42;20.13;;;19.00;99.90;;;;;;5073020;28;20048;-67
2022/08/16 05:42:02;;;;;;;24.00;21.60;;;19.00;99.90;;;;;;5071056;28;20097;-67
2022/08/16 05:44:27;;;;;;;24.33;21.90;;;19.10;99.90;;;;;;5065075;28;20047;-67
2022/08/16 05:46:58;;;;;;;23.17;20.85;;;19.20;99.90;;;;;;5054244;28;20355;-67
2022/08/16 05:49:27;;;;;;;21.80;19.60;;;19.40;99.90;;;;;;5053984;28;20361;-67
2022/08/16 05:51:55;;;;;;;23.52;21.10;;;19.50;99.90;;;;;;5053773;28;20053;-67
2022/08/16 05:54:22;;;;;;;22.48;19.98;;;19.70;99.90;;;;;;5054191;28;20088;-67
2022/08/16 05:56:48;;;;;;;22.13;19.80;;;20.20;99.90;;;;;;5046766;28;20045;-67
2022/08/16 05:59:16;;;;;;;20.35;18.23;;;21.10;99.90;;;;;;5035882;28;20118;-67
2022/08/16 06:01:49;;;;;;;22.67;18.08;;;21.80;99.90;;;;;;5054069;28;20049;-67
2022/08/16 06:04:15;;;;;;;20.60;17.45;;;22.30;99.90;;;;;;5052782;28;20045;-66
2022/08/16 06:06:42;;;;;;;22.90;18.88;;;22.20;99.90;;;;;;5047469;28;20040;-66
2022/08/16 06:09:09;;;;;;;20.52;18.42;;;21.90;99.90;;;;;;5061818;28;20036;-66
2022/08/16 06:11:34;;;;;;;20.73;18.63;;;21.60;99.90;;;;;;5073799;28;20154;-67
2022/08/16 06:14:00;;;;;;;20.45;18.33;;;21.40;99.90;;;;;;5055612;28;20083;-67
2022/08/16 06:16:26;;;;;;;20.50;17.58;;;21.30;99.90;;;;;;5055981;28;20056;-66
2022/08/16 06:18:52;;;;;;;20.10;17.77;;;21.10;99.90;;;;;;5073830;28;20099;-66
2022/08/16 06:21:17;;;;;;;24.77;18.30;;;21.10;99.90;;;;;;5055078;28;20037;-66
2022/08/16 06:23:43;;;;;;;23.70;17.90;;;21.00;99.90;;;;;;5052615;28;20120;-66
2022/08/16 06:26:08;;;;;;;22.60;17.63;;;21.00;99.90;;;;;;5052540;28;20052;-67
2022/08/16 06:28:34;;;;;;;24.10;19.27;;;21.00;99.90;;;;;;5053517;28;20060;-67
2022/08/16 06:31:00;;;;;;;22.77;19.27;;;20.90;99.90;;;;;;5035496;28;20496;-67
2022/08/16 06:33:26;;;;;;;24.08;18.33;;;20.80;99.90;;;;;;5069092;28;20052;-67
2022/08/16 06:35:53;;;;;;;25.95;18.23;;;20.90;99.90;;;;;;5052692;28;20045;-66
2022/08/16 06:38:19;;;;;;;28.70;19.40;;;20.80;99.90;;;;;;5052339;28;20102;-67
2022/08/16 06:40:44;;;;;;;31.58;19.48;;;20.80;99.90;;;;;;5047677;28;20041;-66
2022/08/16 06:43:10;;;;;;;31.40;18.35;;;20.80;99.90;;;;;;5051125;28;20431;-67
2022/08/16 06:45:36;;;;;;;34.83;19.65;;;20.80;99.90;;;;;;5050048;28;20068;-67
2022/08/16 06:48:04;;;;;;;33.08;19.50;;;20.90;99.90;;;;;;5047367;28;20448;-67
2022/08/16 06:51:01;;;;;;;24.50;17.95;;;21.00;99.90;;;;;;5065187;22;20427;31
2022/08/16 06:53:27;;;;;;;29.90;18.02;;;21.20;99.90;;;;;;4968992;28;20067;-67
2022/08/16 06:55:57;;;;;;;28.00;16.10;;;21.30;99.90;;;;;;4955970;28;20051;-67
2022/08/16 06:58:23;;;;;;;23.70;16.88;;;21.50;99.90;;;;;;4969775;28;20490;-68
2022/08/16 07:00:48;;;;;;;20.77;17.38;;;21.60;99.90;;;;;;4950615;28;20054;-66
2022/08/16 07:03:14;;;;;;;22.00;18.05;;;21.80;99.90;;;;;;4967395;28;20047;-67
2022/08/16 07:05:39;;;;;;;23.27;18.02;;;21.90;99.90;;;;;;4966630;28;20047;-68
2022/08/16 07:08:05;;;;;;;24.13;17.27;;;22.00;99.90;;;;;;4969955;28;20089;-67
2022/08/16 07:10:31;;;;;;;20.67;17.17;;;22.20;99.90;;;;;;4973705;28;20055;-67
2022/08/16 07:12:56;;;;;;;21.95;16.70;;;22.20;99.90;;;;;;4973419;28;20054;-66
2022/08/16 07:15:22;;;;;;;17.92;16.13;;;22.20;99.90;;;;;;4972744;28;20490;-67
2022/08/16 07:17:48;;;;;;;19.70;17.67;;;22.40;99.90;;;;;;4969021;28;20447;-67
2022/08/16 07:20:15;;;;;;;19.98;17.88;;;22.30;99.90;;;;;;4972226;28;20049;-67
2022/08/16 07:22:41;;;;;;;19.25;17.45;;;22.50;99.90;;;;;;4972626;28;20439;-67
2022/08/16 07:25:10;;;;;;;20.00;17.92;;;22.50;99.90;;;;;;4986280;28;20466;-68
2022/08/16 07:27:36;;;;;;;20.73;18.63;;;22.80;99.90;;;;;;4973717;28;20054;-67
2022/08/16 07:30:05;;;;;;;20.70;18.70;;;22.90;99.90;;;;;;4973460;28;20487;-67
2022/08/16 07:32:30;;;;;;;20.80;18.60;;;23.00;99.90;;;;;;4964756;28;20046;-67
2022/08/16 07:34:56;;;;;;;20.92;18.83;;;23.10;99.90;;;;;;5005007;28;20121;-67
2022/08/16 07:37:21;;;;;;;21.17;19.02;;;23.10;99.90;;;;;;4962701;28;20409;-68
2022/08/16 07:39:47;;;;;;;20.15;18.15;;;23.30;99.90;;;;;;4973696;28;20094;-67
2022/08/16 07:42:13;;;;;;;19.67;17.60;;;23.40;99.90;;;;;;4973138;28;20051;-66
2022/08/16 07:44:38;;;;;;;17.20;15.60;;;23.50;99.90;;;;;;4973587;28;20051;-67
2022/08/16 07:47:04;;;;;;;19.08;17.08;;;23.60;99.90;;;;;;4972149;28;20101;-67
2022/08/16 07:49:29;;;;;;;18.48;16.80;;;23.80;99.90;;;;;;4956393;28;20086;-67
2022/08/16 07:51:55;;;;;;;17.50;15.88;;;23.90;99.90;;;;;;4972317;28;20134;-67
2022/08/16 07:54:21;;;;;;;20.17;18.08;;;24.00;99.90;;;;;;4978738;28;20071;-67
2022/08/16 07:56:46;;;;;;;17.67;15.88;;;24.10;99.90;;;;;;4973367;28;20061;-67
2022/08/16 07:59:12;;;;;;;17.13;15.32;;;24.20;99.90;;;;;;4956003;28;20101;-66
2022/08/16 08:01:38;;;;;;;18.33;16.55;;;24.30;99.90;;;;;;4973229;28;20054;-66
2022/08/16 08:04:04;;;;;;;17.95;16.20;;;24.30;99.90;;;;;;4973795;28;20063;-66
2022/08/16 08:06:31;;;;;;;18.77;15.57;;;24.30;99.90;;;;;;4977040;28;20086;-67
2022/08/16 08:08:58;;;;;;;17.92;16.23;;;24.40;99.90;;;;;;4962251;28;20062;-67
2022/08/16 08:11:24;;;;;;;16.67;15.00;;;24.50;99.90;;;;;;4976582;28;20056;-67
2022/08/16 08:13:52;;;;;;;17.08;15.38;;;24.60;99.90;;;;;;4976282;28;20046;-67
2022/08/16 08:16:20;;;;;;;17.17;15.68;;;24.60;99.90;;;;;;4976722;28;20050;-67
2022/08/16 08:18:47;;;;;;;16.60;15.05;;;24.70;99.90;;;;;;4962581;28;20483;-67
2022/08/16 08:21:12;;;;;;;16.40;14.85;;;24.80;99.90;;;;;;4956811;28;20047;-67
2022/08/16 08:23:38;;;;;;;17.98;16.27;;;24.90;99.90;;;;;;4975570;28;20047;-67
2022/08/16 08:26:05;;;;;;;18.05;16.35;;;25.10;99.90;;;;;;4976757;28;20042;-67
2022/08/16 08:28:31;;;;;;;18.60;16.95;;;25.20;99.90;;;;;;4976576;28;20118;-67
2022/08/16 08:31:01;;;;;;;19.10;17.20;;;25.10;99.90;;;;;;4976542;28;20042;-67
2022/08/16 08:33:27;;;;;;;17.17;15.48;;;25.00;99.90;;;;;;4976108;28;20429;-67
2022/08/16 08:35:56;;;;;;;18.08;16.33;;;25.10;99.90;;;;;;4991550;28;20105;-67
2022/08/16 08:38:22;;;;;;;19.08;17.15;;;25.20;99.90;;;;;;4995562;28;20057;-67
2022/08/16 08:40:47;;;;;;;17.70;16.10;;;25.20;99.90;;;;;;4995883;28;20054;-67
2022/08/16 08:43:13;;;;;;;17.83;15.95;;;25.10;99.90;;;;;;4962460;28;20047;-67
2022/08/16 08:45:40;;;;;;;17.65;15.85;;;25.30;99.90;;;;;;4974028;28;20042;-67
2022/08/16 08:48:07;;;;;;;18.10;16.23;;;25.40;99.90;;;;;;4975532;28;20050;-67
2022/08/16 08:50:33;;;;;;;16.17;14.68;;;25.40;99.90;;;;;;4976173;28;20046;-67
2022/08/16 08:53:00;;;;;;;17.20;15.70;;;25.50;99.90;;;;;;4974906;28;20406;-67
2022/08/16 08:55:26;;;;;;;18.27;16.38;;;25.60;99.90;;;;;;4976585;28;20133;-67
2022/08/16 08:57:53;;;;;;;14.65;13.18;;;25.60;99.90;;;;;;4976268;28;20062;-67
2022/08/16 09:00:23;;;;;;;17.55;15.80;;;25.70;99.90;;;;;;4959083;28;20124;-67
2022/08/16 09:02:49;;;;;;;17.80;16.10;;;25.80;99.90;;;;;;4975666;28;20051;-67
2022/08/16 09:05:17;;;;;;;18.00;16.23;;;25.90;99.90;;;;;;4974296;28;20050;-66
2022/08/16 09:07:44;;;;;;;16.98;15.38;;;26.00;99.90;;;;;;4974105;28;20062;-67
2022/08/16 09:10:11;;;;;;;17.00;15.48;;;26.00;99.90;;;;;;4975982;28;20046;-67
2022/08/16 09:12:38;;;;;;;16.15;14.43;;;26.00;99.90;;;;;;4975847;28;20150;-67
2022/08/16 09:15:05;;;;;;;14.27;12.80;;;26.10;99.90;;;;;;4957974;28;20141;-67
2022/08/16 09:17:31;;;;;;;14.48;12.60;;;26.20;99.90;;;;;;4975437;28;20063;-67
2022/08/16 09:19:57;;;;;;;15.18;12.73;;;26.20;99.90;;;;;;4975120;28;20043;-67
2022/08/16 09:22:24;;;;;;;13.02;11.85;;;26.20;99.90;;;;;;4957759;28;20057;-67
2022/08/16 09:24:50;;;;;;;14.80;13.38;;;26.30;99.90;;;;;;4975240;28;20382;-67
2022/08/16 09:27:16;;;;;;;18.95;15.70;;;26.40;99.90;;;;;;4988347;28;20125;-67
2022/08/16 09:29:42;;;;;;;14.13;12.93;;;26.40;99.90;;;;;;4993894;28;20086;-68
2022/08/16 09:32:08;;;;;;;10.35;8.55;;;26.40;99.90;;;;;;4995329;28;20061;-67
2022/08/16 09:34:33;;;;;;;9.25;8.18;;;26.40;99.90;;;;;;4994868;28;20042;-67
2022/08/16 09:36:59;;;;;;;9.07;7.97;;;26.40;99.90;;;;;;4990431;28;20058;-67
2022/08/16 09:39:25;;;;;;;11.52;7.80;;;26.50;99.90;;;;;;4977951;28;20062;-67
2022/08/16 09:41:57;;;;;;;11.15;8.38;;;26.70;99.90;;;;;;4992585;28;20062;-67
2022/08/16 09:44:25;;;;;;;9.43;7.97;;;26.70;99.10;;;;;;4990343;28;20107;-67
2022/08/16 09:46:52;;;;;;;12.20;8.40;;;26.80;99.50;;;;;;4969485;28;20046;-67
2022/08/16 09:49:18;;;;;;;8.52;7.00;;;26.90;98.30;;;;;;4974927;28;20112;-67
2022/08/16 09:51:43;;;;;;;8.00;7.20;;;26.90;98.30;;;;;;4974763;28;20051;-67
2022/08/16 09:54:09;;;;;;;8.02;7.22;;;26.90;96.60;;;;;;4975016;28;20057;-67
2022/08/16 09:56:37;;;;;;;8.65;7.32;;;27.00;94.70;;;;;;4969138;28;20059;-67
2022/08/16 09:59:05;;;;;;;8.10;6.72;;;27.00;95.00;;;;;;4991535;28;20116;-68
2022/08/16 10:01:30;;;;;;;6.05;5.55;;;27.10;92.60;;;;;;4977906;28;20050;-67
2022/08/16 10:03:56;;;;;;;9.02;6.07;;;27.10;92.40;;;;;;4974294;28;20121;-67
2022/08/16 10:06:23;;;;;;;8.05;6.97;;;27.20;91.80;;;;;;4974636;28;20058;-67
2022/08/16 10:08:49;;;;;;;7.15;6.45;;;27.20;87.90;;;;;;4974607;28;20047;-68
2022/08/16 10:14:00;;;;;;;8.10;5.90;;;27.30;88.80;;;;;;4973820;28;20130;-68
2022/08/16 10:16:25;;;;;;;8.38;6.43;;;27.40;90.50;;;;;;4974857;28;20133;-67
2022/08/16 10:18:51;;;;;;;6.57;5.75;;;27.40;87.00;;;;;;4958431;28;20054;-68
2022/08/16 10:21:17;;;;;;;11.73;7.03;;;27.50;84.70;;;;;;4973428;28;20058;-68
2022/08/16 10:23:43;;;;;;;7.22;5.88;;;27.50;80.70;;;;;;4956428;28;20406;-68
2022/08/16 10:26:09;;;;;;;7.70;5.30;;;27.40;82.40;;;;;;4979045;28;20050;-69
2022/08/16 10:28:36;;;;;;;6.70;5.45;;;27.60;80.30;;;;;;4971756;28;20062;-68
2022/08/16 10:31:03;;;;;;;6.38;5.78;;;27.70;82.90;;;;;;4961724;28;20054;-68
2022/08/16 10:33:29;;;;;;;10.32;5.85;;;27.70;83.80;;;;;;4974480;28;20053;-68
2022/08/16 10:35:55;;;;;;;8.45;5.75;;;27.90;80.80;;;;;;4974451;28;20097;-68
2022/08/16 10:38:21;;;;;;;6.25;5.65;;;27.90;77.40;;;;;;4976636;28;20157;-68
2022/08/16 10:40:47;;;;;;;6.95;6.28;;;28.00;76.00;;;;;;4989822;28;20153;-68
2022/08/16 10:43:13;;;;;;;7.13;6.53;;;28.10;75.10;;;;;;4991366;28;20069;-68
2022/08/16 10:45:39;;;;;;;8.93;5.30;;;28.00;72.20;;;;;;4972470;28;20182;-68
2022/08/16 10:48:09;;;;;;;10.95;6.50;;;28.10;73.30;;;;;;4975100;28;20105;-68
2022/08/16 10:50:36;;;;;;;6.93;5.97;;;28.10;72.00;;;;;;4974412;28;20058;-68
2022/08/16 10:53:05;;;;;;;6.43;5.82;;;28.00;73.90;;;;;;4967320;28;20055;-67
2022/08/16 10:55:35;;;;;;;6.28;5.50;;;28.00;73.00;;;;;;4954568;29;20210;-68
2022/08/16 10:58:04;;;;;;;7.50;6.15;;;28.10;72.50;;;;;;4951359;28;20513;-67
2022/08/16 11:00:31;;;;;;;6.68;5.70;;;28.20;72.50;;;;;;4953982;28;20055;-68
2022/08/16 11:02:58;;;;;;;6.13;5.47;;;28.30;72.10;;;;;;4954038;28;20062;-68
2022/08/16 11:05:24;;;;;;;8.90;6.80;;;28.40;71.90;;;;;;4955734;28;20130;-68
2022/08/16 11:07:50;;;;;;;6.80;6.10;;;28.40;73.30;;;;;;4953893;29;20420;-68
2022/08/16 11:10:18;;;;;;;6.60;6.03;;;28.40;73.60;;;;;;4957244;28;20043;-68
2022/08/16 11:12:44;;;;;;;6.35;5.75;;;28.50;69.80;;;;;;4953487;28;20055;-67
2022/08/16 11:15:10;;;;;;;7.05;5.90;;;28.50;68.70;;;;;;4954415;28;20119;-68
2022/08/16 11:17:38;;;;;;;6.88;6.25;;;28.60;68.30;;;;;;4953898;28;20126;-68
2022/08/16 11:20:07;;;;;;;7.35;6.05;;;28.70;68.00;;;;;;4954949;29;20055;-68
2022/08/16 11:22:33;;;;;;;9.18;5.70;;;28.60;68.00;;;;;;4952533;29;20055;-69
2022/08/16 11:24:58;;;;;;;5.82;5.28;;;28.70;66.50;;;;;;4956005;28;20054;-68
2022/08/16 11:27:25;;;;;;;8.48;5.53;;;28.80;66.60;;;;;;4954009;29;20058;-69
2022/08/16 11:29:55;;;;;;;6.25;5.60;;;28.90;65.60;;;;;;4937767;29;20062;-68
2022/08/16 11:32:23;;;;;;;7.18;5.75;;;29.00;65.30;;;;;;4954917;29;20055;-68
2022/08/16 11:34:49;;;;;;;7.38;5.40;;;29.00;65.10;;;;;;4953277;28;20082;-67
2022/08/16 11:37:14;;;;;;;6.10;5.50;;;29.20;65.60;;;;;;4937809;29;20467;-67
2022/08/16 11:39:40;;;;;;;10.45;5.28;;;29.20;63.60;;;;;;4961239;28;20117;-67
2022/08/16 11:42:05;;;;;;;14.30;6.15;;;29.10;62.20;;;;;;4968307;28;20398;-67
2022/08/16 11:44:31;;;;;;;8.38;5.13;;;29.20;62.70;;;;;;4959824;28;20047;-67
2022/08/16 11:46:57;;;;;;;5.30;4.80;;;29.20;62.10;;;;;;4958070;29;20058;-67
2022/08/16 11:49:23;;;;;;;5.38;4.47;;;29.20;61.80;;;;;;4958460;29;20062;-67
2022/08/16 11:51:49;;;;;;;4.65;4.25;;;29.40;62.40;;;;;;4957159;28;20055;-66
2022/08/16 11:54:14;;;;;;;5.82;4.60;;;29.50;61.70;;;;;;4976031;28;20054;-67
2022/08/16 11:56:40;;;;;;;4.63;4.22;;;29.50;60.60;;;;;;4959097;28;20062;-67
2022/08/16 11:59:07;;;;;;;5.63;4.00;;;29.50;59.90;;;;;;4941273;29;20048;-67
2022/08/16 12:01:32;;;;;;;5.32;4.40;;;29.50;59.70;;;;;;4957575;29;20059;-67
2022/08/16 12:03:58;;;;;;;4.32;3.90;;;29.50;58.80;;;;;;4958096;29;20487;-67
2022/08/16 12:06:24;;;;;;;4.00;3.70;;;29.50;58.40;;;;;;4957625;28;20468;-67
2022/08/16 12:08:50;;;;;;;5.03;4.63;;;29.60;59.70;;;;;;4957127;29;20058;-67
2022/08/16 12:11:16;;;;;;;4.70;4.20;;;29.60;59.10;;;;;;4941312;29;20135;-67
2022/08/16 12:13:42;;;;;;;6.88;4.00;;;29.60;58.20;;;;;;4964068;28;20125;-66
2022/08/16 12:16:09;;;;;;;5.22;4.82;;;29.50;57.40;;;;;;4962417;28;20066;-66
2022/08/16 12:18:35;;;;;;;4.78;4.00;;;29.50;56.90;;;;;;4957561;28;20043;-67
2022/08/16 12:21:02;;;;;;;7.45;4.40;;;29.40;56.70;;;;;;4956119;28;20051;-66
2022/08/16 12:23:27;;;;;;;3.80;3.40;;;29.50;55.80;;;;;;4957675;28;20066;-67
2022/08/16 12:25:53;;;;;;;5.90;3.88;;;29.50;55.20;;;;;;4955282;28;20427;-65
2022/08/16 12:28:19;;;;;;;3.88;3.58;;;29.40;55.00;;;;;;4957436;29;20168;-66
2022/08/16 12:30:46;;;;;;;4.13;3.67;;;29.40;54.30;;;;;;4957542;29;20439;-66